Latest Weather Observations for Falls Creek

IDV60801

Issued at 5:32 am EST Saturday 30 July 2016 (issued every 30 minutes, with the page automatically refreshed every 10 minutes)

About weather observations | Map of weather stations | Latest weather observations for VIC | Other Formats
Station Details ID: 083084 Name: FALLS CREEK Lat: -36.87 Lon: 147.28 Height: 1765.0 m
Data from the previous 72 hours. | See also: Recent months at Falls Creek
Date/Time
EST
Temp
°C
App
Temp
°C
Dew
Point
°C
Rel
Hum
%
Delta-T
°C
Wind Press
QNH
hPa
Press
MSL
hPa
Rain since
9am
mm
Dir  Spd
km/h
Gust
km/h
Spd
kts
Gust
kts
30/05:30am -2.0 -6.0 -2.3 98 0.0 NW 9 22 5 12 1019.8 1022.6 0.0
30/05:00am -1.8 -6.9 -2.1 98 0.0 WNW 15 22 8 12 1019.6 1022.5 0.0
30/04:30am -1.7 -6.4 -1.8 99 0.0 W 13 17 7 9 1019.8 1022.6 0.0
30/04:00am -1.3 -5.9 -1.4 99 0.0 WNW 13 20 7 11 1019.8 1022.6 0.0
30/03:30am -1.0 -5.6 -1.1 99 0.0 NNW 13 20 7 11 1020.0 1022.9 0.0
30/03:00am -0.9 -5.1 -1.0 99 0.0 N 11 15 6 8 1020.0 1022.9 0.0
30/02:30am -0.8 -5.4 -0.9 99 0.0 NNW 13 20 7 11 1020.0 1022.9 0.0
30/02:00am -0.6 -5.5 -0.7 99 0.0 WNW 15 22 8 12 1020.2 1023.1 0.0
30/01:30am -0.6 -8.0 -0.7 99 0.0 W 28 35 15 19 1020.0 1022.9 0.0
30/01:00am -0.3 -5.6 -0.4 99 0.0 W 17 26 9 14 1020.3 1023.2 0.0
30/12:30am -0.3 -4.4 -0.4 99 0.0 WNW 11 17 6 9 1020.5 1023.4 0.0
30/12:00am -0.4 -3.8 -0.5 99 0.0 NNW 7 11 4 6 1020.6 1023.5 0.0
 
Date/Time
EST
Temp
°C
App
Temp
°C
Dew
Point
°C
Rel
Hum
%
Delta-T
°C
Wind Press
QNH
hPa
Press
MSL
hPa
Rain since
9am
mm
Dir  Spd
km/h
Gust
km/h
Spd
kts
Gust
kts
29/11:30pm -0.4 -4.5 -0.5 99 0.0 NNW 11 19 6 10 1020.6 1023.5 0.0
29/11:00pm -0.4 -5.7 -0.5 99 0.0 NW 17 26 9 14 1020.5 1023.4 0.0
29/10:30pm -0.4 -6.1 -0.5 99 0.0 NW 19 28 10 15 1020.2 1023.1 0.0
29/10:00pm -0.4 -6.6 -0.5 99 0.0 NW 22 30 12 16 1020.1 1023.0 0.0
29/09:30pm -0.3 -5.6 -0.4 99 0.0 NW 17 30 9 16 1020.1 1023.0 0.0
29/09:00pm -0.3 -6.0 -0.4 99 0.0 NW 19 30 10 16 1020.1 1023.0 0.0
29/08:30pm -0.3 -6.1 -0.4 99 0.0 NW 20 26 11 14 1019.9 1022.7 0.0
29/08:00pm -0.2 -6.0 -0.3 99 0.0 NW 20 28 11 15 1019.8 1022.6 0.0
29/07:30pm -0.2 -6.0 -0.3 99 0.0 NW 20 32 11 17 1019.5 1022.4 0.0
29/07:00pm -0.2 -6.0 -0.3 99 0.0 NW 20 33 11 18 1019.4 1022.2 0.0
29/06:30pm -0.2 -7.2 -0.3 99 0.0 NW 26 35 14 19 1019.3 1022.1 0.0
29/06:00pm -0.2 -6.8 -0.3 99 0.0 NW 24 30 13 16 1019.2 1022.0 0.0
29/05:30pm -0.2 -6.8 -0.3 99 0.0 NW 24 35 13 19 1018.6 1021.4 0.0
29/05:00pm -0.2 -6.8 -0.3 99 0.0 NNW 24 32 13 17 1018.2 1021.0 0.0
29/04:30pm -0.2 -6.0 -0.3 99 0.0 NNW 20 30 11 16 1018.2 1021.0 0.0
29/04:00pm -0.1 -6.3 -0.2 99 0.0 NNW 22 30 12 16 1018.2 1021.0 0.0
29/03:30pm -0.1 -6.7 -0.2 99 0.0 NNW 24 33 13 18 1018.0 1020.8 0.0
29/03:00pm -0.1 -5.9 -0.2 99 0.0 NNW 20 28 11 15 1018.3 1021.1 0.0
29/02:30pm -0.1 -5.9 -0.2 99 0.0 NW 20 30 11 16 1018.2 1021.0 0.0
29/02:00pm 0.0 -6.6 -0.1 99 0.0 NW 24 35 13 19 1018.4 1021.3 0.0
29/01:30pm 0.0 -6.6 -0.1 99 0.0 NW 24 39 13 21 1018.2 1021.0 0.0
29/01:00pm -0.1 -7.4 -0.2 99 0.0 NW 28 43 15 23 1018.8 1021.6 0.0
29/12:30pm -0.1 -8.2 -0.2 99 0.0 NW 32 43 17 23 1018.9 1021.7 0.0
29/12:00pm -0.2 -8.3 -0.3 99 0.0 NW 32 44 17 24 1019.2 1022.0 0.0
29/11:30am -0.3 -8.6 -0.4 99 0.0 NW 33 52 18 28 1019.3 1022.1 0.0
29/11:25am -0.4 -9.1 -0.5 99 0.0 NW 35 54 19 29 1019.3 1022.1 0.0
29/11:00am -0.4 -9.5 -0.5 99 0.0 NW 37 52 20 28 1019.4 1022.2 0.0
29/10:42am -0.7 -8.1 -0.8 99 0.0 NW 28 48 15 26 1019.5 1022.4 0.0
29/10:30am -0.7 -6.4 -0.8 99 0.0 NW 19 30 10 16 1019.6 1022.5 0.0
29/10:00am -1.0 -5.6 -1.1 99 0.0 NW 13 15 7 8 1019.4 1022.2 0.0
29/09:30am -1.2 -5.8 -1.3 99 0.0 NW 13 19 7 10 1019.2 1022.0 0.0
29/09:00am -1.3 -6.7 -1.6 98 0.0 NW 17 20 9 11 1019.4 1022.2 0.0
29/08:30am -1.4 -6.8 -1.7 98 0.0 NW 17 24 9 13 1019.6 1022.5 0.0
29/08:00am -1.5 -7.3 -1.8 98 0.0 NW 19 26 10 14 1019.5 1022.4 0.0
29/07:30am -1.5 -7.5 -1.8 98 0.0 NNW 20 28 11 15 1019.3 1022.1 0.0
29/07:00am -1.7 -8.1 -2.0 98 0.0 NNW 22 30 12 16 1019.5 1022.4 0.0
29/06:30am -1.8 -8.3 -2.1 98 0.0 NW 22 30 12 16 1019.5 1022.4 0.0
29/06:00am -1.9 -8.4 -2.2 98 0.0 NNW 22 28 12 15 1019.3 1022.1 0.0
29/05:30am -2.1 -9.0 -2.4 98 0.0 NNW 24 33 13 18 1019.3 1022.1 0.0
29/05:00am -2.3 -10.3 -2.6 98 0.0 NW 30 39 16 21 1019.0 1021.9 0.0
29/04:30am -2.4 -11.0 -2.7 98 0.0 NW 33 43 18 23 1018.9 1021.7 0.0
29/04:00am -2.3 -11.3 -2.6 98 0.0 NW 35 44 19 24 1018.9 1021.7 0.0
29/03:30am -2.4 -11.0 -2.7 98 0.0 NW 33 41 18 22 1019.3 1022.1 0.0
29/03:00am -2.6 -12.4 -2.9 98 0.0 WNW 39 46 21 25 1019.0 1021.9 0.0
29/02:30am -2.7 -12.9 -3.0 98 0.0 WNW 41 50 22 27 1019.0 1021.9 0.0
29/02:00am -2.7 -12.1 -3.0 98 0.0 WNW 37 46 20 25 1019.2 1022.0 0.0
29/01:30am -2.4 -11.4 -2.7 98 0.0 WNW 35 44 19 24 1019.5 1022.4 0.0
29/01:00am -2.3 -11.3 -2.6 98 0.0 WNW 35 43 19 23 1019.8 1022.6 0.0
29/12:30am -2.2 -10.6 -2.5 98 0.0 NW 32 41 17 22 1020.1 1023.0 0.0
29/12:00am -1.9 -10.5 -2.2 98 0.0 NW 33 43 18 23 1020.5 1023.4 0.0
 
Date/Time
EST
Temp
°C
App
Temp
°C
Dew
Point
°C
Rel
Hum
%
Delta-T
°C
Wind Press
QNH
hPa
Press
MSL
hPa
Rain since
9am
mm
Dir  Spd
km/h
Gust
km/h
Spd
kts
Gust
kts
28/11:30pm -2.0 -11.7 -2.3 98 0.0 WNW 39 46 21 25 1020.3 1023.2 0.0
28/11:00pm -2.0 -10.9 -2.3 98 0.0 NW 35 48 19 26 1020.8 1023.7 0.0
28/10:55pm -2.0 -9.6 -2.3 98 0.0 NW 28 48 15 26 1021.1 1024.0 0.0
28/10:30pm -2.2 -10.2 -2.5 98 0.0 NW 30 41 16 22 1021.3 1024.2 0.0
28/10:00pm -2.4 -12.2 -2.7 98 0.0 WNW 39 50 21 27 1021.2 1024.1 0.0
28/09:41pm -2.4 -10.1 -2.7 98 0.0 NW 28 46 15 25 1021.4 1024.4 0.0
28/09:30pm -2.4 -9.7 -2.7 98 0.0 NW 26 44 14 24 1021.4 1024.4 0.0
28/09:00pm -2.3 -10.7 -2.6 98 0.0 NW 32 43 17 23 1021.5 1024.5 0.0
28/08:30pm -2.4 -10.4 -2.7 98 0.0 NW 30 39 16 21 1021.9 1024.9 0.0
28/08:00pm -2.4 -9.3 -2.7 98 0.0 NNW 24 39 13 21 1022.0 1025.0 0.0
28/07:30pm -2.2 -9.1 -2.5 98 0.0 NNW 24 35 13 19 1022.0 1025.0 0.0
28/07:00pm -1.9 -8.4 -2.2 98 0.0 NW 22 32 12 17 1022.0 1025.0 0.0
28/06:30pm -1.8 -8.6 -2.1 98 0.0 NW 24 35 13 19 1021.7 1024.6 0.0
28/06:00pm -1.6 -8.0 -1.9 98 0.0 NNW 22 33 12 18 1021.5 1024.5 0.0
28/05:30pm -1.4 -8.2 -1.5 99 0.0 NNW 24 33 13 18 1021.4 1024.4 0.0
28/05:00pm -1.2 -7.2 -1.3 99 0.0 NW 20 30 11 16 1021.4 1024.4 0.0
28/04:30pm -1.1 -7.4 -1.2 99 0.0 NNW 22 32 12 17 1021.3 1024.2 0.0
28/04:00pm -1.0 -7.3 -1.1 99 0.0 NNW 22 33 12 18 1021.2 1024.1 0.0
28/03:30pm -0.8 -7.1 -0.9 99 0.0 NW 22 35 12 19 1020.9 1023.9 0.0
28/03:00pm -0.8 -9.0 -0.9 99 0.0 NW 32 43 17 23 1020.5 1023.4 0.0
28/02:30pm -0.7 -9.4 -0.8 99 0.0 WNW 35 46 19 25 1020.6 1023.5 0.0
28/02:00pm -0.7 -9.4 -0.8 99 0.0 NW 35 46 19 25 1020.5 1023.4 0.0
28/01:30pm -0.7 -9.1 -0.8 99 0.0 NW 33 43 18 23 1020.5 1023.4 0.0
28/01:00pm -0.6 -9.3 -0.7 99 0.0 NW 35 48 19 26 1020.5 1023.4 0.0
28/12:30pm -0.7 -9.4 -0.8 99 0.0 NW 35 48 19 26 1020.6 1023.5 0.0
28/12:00pm -0.8 -9.6 -0.9 99 0.0 NW 35 44 19 24 1021.2 1024.1 0.0
28/11:30am -1.0 -9.8 -1.1 99 0.0 NW 35 48 19 26 1021.3 1024.2 0.0
28/11:00am -1.1 -9.5 -1.2 99 0.0 NW 33 44 18 24 1021.3 1024.2 0.0
28/10:30am -1.3 -9.2 -1.4 99 0.0 NW 30 44 16 24 1021.3 1024.2 0.0
28/10:00am -1.6 -8.8 -1.9 98 0.0 NNW 26 37 14 20 1021.3 1024.2 0.0
28/09:38am -1.7 -9.3 -2.0 98 0.0 NNW 28 46 15 25 1020.9 1023.9 0.0
28/09:30am -1.7 -9.3 -2.0 98 0.0 NW 28 43 15 23 1020.9 1023.9 0.0
28/09:00am -1.8 -9.0 -2.1 98 0.0 WNW 26 41 14 22 1021.1 1024.0 0.0
28/08:30am -2.1 -8.2 -2.4 98 0.0 NW 20 30 11 16 1020.9 1023.9 0.0
28/08:00am -2.3 -8.2 -2.6 98 0.0 NW 19 28 10 15 1020.8 1023.7 0.0
28/07:30am -2.4 -10.1 -2.7 98 0.0 NW 28 39 15 21 1020.2 1023.1 0.0
28/07:00am -2.6 -10.3 -2.9 98 0.0 NW 28 37 15 20 1020.0 1022.9 0.0
28/06:42am -2.6 -10.3 -2.9 98 0.0 NW 28 46 15 25 1019.9 1022.7 0.0
28/06:30am -2.6 -10.7 -2.9 98 0.0 NW 30 41 16 22 1019.8 1022.6 0.0
28/06:00am -2.7 -10.4 -3.0 98 0.0 NW 28 44 15 24 1019.5 1022.4 0.0
28/05:30am -2.8 -11.8 -3.1 98 0.0 WNW 35 44 19 24 1019.0 1021.9 0.0
28/05:00am -2.9 -12.0 -3.2 98 0.0 WNW 35 50 19 27 1018.8 1021.6 0.0
28/04:30am -2.9 -10.6 -3.2 98 0.0 WNW 28 39 15 21 1018.8 1021.6 0.0
28/04:00am -2.9 -9.1 -3.2 98 0.0 WNW 20 30 11 16 1019.0 1021.9 0.0
28/03:30am -2.9 -9.1 -3.2 98 0.0 NW 20 28 11 15 1018.9 1021.7 0.0
28/03:00am -3.1 -10.1 -3.4 98 0.0 WNW 24 33 13 18 1018.9 1021.7 0.0
28/02:30am -3.2 -11.0 -3.5 98 0.0 WSW 28 33 15 18 1018.8 1021.6 0.0
28/02:00am -3.2 -9.8 -3.5 98 0.0 W 22 30 12 16 1018.6 1021.4 0.0
28/01:30am -3.2 -10.2 -3.5 98 0.0 W 24 35 13 19 1018.7 1021.5 0.0
28/01:00am -3.2 -9.4 -3.5 98 0.0 W 20 32 11 17 1018.6 1021.4 0.0
28/12:30am -3.1 -9.7 -3.4 98 0.0 WSW 22 39 12 21 1018.6 1021.4 0.0
28/12:03am -2.8 -11.3 -3.1 98 0.0 WSW 32 50 17 27 1018.3 1021.1 0.0
28/12:00am -2.9 -10.6 -3.2 98 0.0 WSW 28 43 15 23 1018.3 1021.1 0.0
 
Date/Time
EST
Temp
°C
App
Temp
°C
Dew
Point
°C
Rel
Hum
%
Delta-T
°C
Wind Press
QNH
hPa
Press
MSL
hPa
Rain since
9am
mm
Dir  Spd
km/h
Gust
km/h
Spd
kts
Gust
kts
27/11:30pm -3.5 -9.8 -3.8 98 -0.1 WSW 20 33 11 18 1018.3 1021.1 0.0
27/11:00pm -3.6 -8.6 -3.9 98 -0.1 W 13 19 7 10 1018.6 1021.4 0.0
27/10:30pm -3.4 -9.5 -3.7 98 -0.1 W 19 30 10 16 1018.8 1021.6 0.0
27/10:00pm -3.3 -9.9 -3.6 98 0.0 W 22 41 12 22 1018.2 1021.0 0.0
27/09:30pm -3.3 -11.5 -3.6 98 0.0 WSW 30 37 16 20 1017.9 1020.6 0.0
27/09:00pm -3.2 -10.2 -3.5 98 0.0 W 24 33 13 18 1018.0 1020.8 0.0
27/08:30pm -3.1 -9.1 -3.4 98 0.0 WNW 19 32 10 17 1017.7 1020.5 0.0
27/08:00pm -3.1 -9.1 -3.4 98 0.0 NNW 19 30 10 16 1016.9 1019.6 0.0
27/07:30pm -3.0 -10.4 -3.3 98 0.0 NW 26 44 14 24 1016.8 1019.5 0.0
27/07:00pm -2.6 -10.7 -2.9 98 0.0 NW 30 41 16 22 1015.9 1018.6 0.0
27/06:30pm -2.4 -11.0 -2.7 98 0.0 WNW 33 41 18 22 1015.5 1018.1 0.0
27/06:00pm -1.9 -10.8 -2.2 98 0.0 WNW 35 44 19 24 1015.2 1017.9 0.0
27/05:30pm -1.9 -11.2 -2.2 98 0.0 WNW 37 52 20 28 1014.5 1017.2 0.0
27/05:00pm -1.4 -10.2 -1.5 99 0.0 NW 35 46 19 25 1013.9 1016.5 0.0
27/04:30pm -1.3 -10.1 -1.4 99 0.0 WNW 35 48 19 26 1013.3 1015.9 0.0
27/04:00pm -1.0 -10.5 -1.1 99 0.0 W 39 48 21 26 1013.3 1015.9 0.0
27/03:35pm -0.7 -9.4 -0.8 99 0.0 WNW 35 56 19 30 1013.2 1015.8 0.0
27/03:30pm -0.7 -9.4 -0.8 99 0.0 WNW 35 52 19 28 1013.2 1015.8 0.0
27/03:19pm -0.5 -7.9 -0.6 99 0.0 WNW 28 46 15 25 1013.0 1015.5 0.0
27/03:00pm -0.4 -7.0 -0.5 99 0.0 NW 24 37 13 20 1012.6 1015.2 0.0
27/02:30pm -0.5 -7.9 -0.6 99 0.0 WNW 28 41 15 22 1012.4 1014.9 0.0
27/02:00pm -0.3 -7.3 -0.4 99 0.0 WNW 26 35 14 19 1011.8 1014.3 0.0
27/01:30pm -0.3 -6.9 -0.4 99 0.0 WNW 24 35 13 19 1011.7 1014.2 0.0
27/01:00pm -0.4 -6.6 -0.5 99 0.0 WNW 22 33 12 18 1011.5 1014.0 0.0
27/12:30pm -0.5 -5.8 -0.6 99 0.0 WNW 17 28 9 15 1011.5 1014.0 0.0
27/12:00pm -0.6 -4.4 -0.7 99 0.0 NW 9 19 5 10 1011.4 1013.9 0.0
27/11:30am -0.9 -6.3 -1.0 99 0.0 W 17 24 9 13 1011.4 1013.9 0.0
27/11:00am -1.2 -7.5 -1.3 99 0.0 W 22 35 12 19 1011.1 1013.6 0.0
27/10:30am -1.5 -7.0 -1.8 98 0.0 W 17 28 9 15 1010.6 1013.1 0.0
27/10:00am -1.9 -8.0 -2.2 98 0.0 W 20 33 11 18 1010.0 1012.4 0.0
27/09:30am -2.1 -8.2 -2.4 98 0.0 WNW 20 30 11 16 1009.3 1011.7 0.0
27/09:00am -2.3 -9.2 -2.6 98 0.0 WNW 24 35 13 19 1008.7 1011.1 2.4
27/08:30am -2.3 -10.0 -2.6 98 0.0 WNW 28 39 15 21 1007.7 1010.1 2.4
27/08:00am -2.4 -9.3 -2.7 98 0.0 NW 24 37 13 20 1007.3 1009.6 2.4
27/07:30am -2.4 -9.3 -2.7 98 0.0 NW 24 35 13 19 1006.7 1009.0 2.4
27/07:00am -2.5 -9.0 -2.8 98 0.0 NW 22 37 12 20 1006.1 1008.3 2.4
27/06:30am -2.6 -9.9 -2.9 98 0.0 NNW 26 41 14 22 1005.4 1007.6 2.4
27/06:00am -2.8 -10.1 -3.1 98 0.0 NW 26 39 14 21 1004.5 1006.7 2.4
27/05:58am -2.8 -9.4 -3.1 98 0.0 NW 22 39 12 21 1004.5 1006.7 2.2

Other Formats:

Comma delimited format used in spreadsheet applications
http://www.bom.gov.au/fwo/IDV60801/IDV60801.94903.axf

JavaScript Object Notation format (JSON) in row-major order
http://www.bom.gov.au/fwo/IDV60801/IDV60801.94903.json